createdAt,value
2023-01-30T07:57:32.265Z,83.40
2023-01-30T08:00:00.144Z,83.50
2023-01-30T08:02:27.522Z,83.00
2023-01-30T08:04:54.941Z,83.00
2023-01-30T08:07:22.324Z,82.60
2023-01-30T08:09:49.635Z,82.00
2023-01-30T08:12:17.143Z,81.40
2023-01-30T08:14:44.462Z,81.40
2023-01-30T08:17:11.764Z,81.20
2023-01-30T08:19:39.113Z,79.60
2023-01-30T08:22:06.610Z,79.10
2023-01-30T08:24:33.925Z,79.10
2023-01-30T08:27:01.239Z,80.00
2023-01-30T08:29:28.583Z,78.10
2023-01-30T08:32:02.070Z,77.90
2023-01-30T08:34:29.468Z,78.10
2023-01-30T08:36:56.772Z,78.80
2023-01-30T08:39:24.057Z,76.90
2023-01-30T08:41:51.462Z,76.40
2023-01-30T08:44:18.808Z,76.30
2023-01-30T08:46:46.367Z,74.80
2023-01-30T08:49:13.756Z,75.30
2023-01-30T08:51:41.105Z,75.00
2023-01-30T08:54:08.637Z,74.00
2023-01-30T08:56:35.952Z,73.80
2023-01-30T08:59:03.298Z,73.40
2023-01-30T09:01:32.066Z,73.10
2023-01-30T09:03:59.451Z,73.20
2023-01-30T09:06:26.855Z,73.80
2023-01-30T09:08:54.152Z,72.20
2023-01-30T09:11:21.503Z,71.00
2023-01-30T09:13:49.864Z,70.40
2023-01-30T09:16:17.477Z,71.20
2023-01-30T09:18:45.561Z,70.70
2023-01-30T09:21:14.111Z,70.60
2023-01-30T09:23:41.986Z,70.60
2023-01-30T09:26:09.624Z,70.20
2023-01-30T09:28:36.980Z,69.70
2023-01-30T09:31:04.859Z,69.60
2023-01-30T09:33:32.368Z,69.40
2023-01-30T09:35:59.870Z,69.30
2023-01-30T09:38:27.172Z,69.90
2023-01-30T09:41:31.039Z,67.90
2023-01-30T09:45:07.997Z,69.00
2023-01-30T09:48:18.049Z,69.00
2023-01-30T09:51:31.084Z,69.40
2023-01-30T09:54:30.916Z,69.10
2023-01-30T09:57:24.647Z,67.90
2023-01-30T10:00:05.139Z,67.50
2023-01-30T10:03:08.623Z,68.00
2023-01-30T10:05:57.013Z,67.30
2023-01-30T10:08:54.282Z,67.90
2023-01-30T10:12:24.125Z,68.20
2023-01-30T10:16:04.312Z,66.80
2023-01-30T10:18:51.309Z,66.20
2023-01-30T10:21:58.084Z,66.50
2023-01-30T10:25:21.347Z,64.80
2023-01-30T10:28:12.053Z,63.90
2023-01-30T10:30:39.439Z,63.40
2023-01-30T10:33:30.588Z,63.00
2023-01-30T10:36:14.602Z,63.10
2023-01-30T10:38:52.849Z,62.70
2023-01-30T10:41:37.762Z,61.60
2023-01-30T10:44:14.459Z,61.00
2023-01-30T10:48:10.184Z,61.10
2023-01-30T10:51:02.493Z,61.60
2023-01-30T10:54:03.302Z,60.70
2023-01-30T10:56:41.089Z,60.40
2023-01-30T10:59:46.209Z,60.60
2023-01-30T11:02:56.119Z,61.10
2023-01-30T11:05:39.576Z,60.40
2023-01-30T11:08:31.137Z,61.00
2023-01-30T11:10:59.079Z,61.80
2023-01-30T11:13:33.605Z,61.70
2023-01-30T11:16:08.917Z,62.50
2023-01-30T11:19:18.898Z,63.10
2023-01-30T11:21:44.580Z,64.00
2023-01-30T11:24:46.030Z,64.40
2023-01-30T11:27:30.995Z,64.60
2023-01-30T11:30:21.417Z,64.60
2023-01-30T11:32:50.663Z,65.40
2023-01-30T11:35:27.250Z,65.90
2023-01-30T11:38:10.284Z,65.60
2023-01-30T11:40:41.366Z,65.10
2023-01-30T11:43:14.968Z,65.90
2023-01-30T11:45:50.066Z,66.50
2023-01-30T11:49:01.606Z,65.70
2023-01-30T11:51:24.583Z,65.30
2023-01-30T11:54:13.829Z,65.40
2023-01-30T11:56:54.582Z,65.40
2023-01-30T12:00:00.508Z,65.20
2023-01-30T12:02:38.298Z,63.70
2023-01-30T12:05:36.542Z,63.70
2023-01-30T12:08:43.329Z,63.00
2023-01-30T12:11:42.081Z,63.20
2023-01-30T12:14:45.129Z,63.40
2023-01-30T12:17:33.610Z,64.00
2023-01-30T12:21:09.312Z,64.30
2023-01-30T12:24:00.414Z,65.40
2023-01-30T12:26:44.271Z,66.00
2023-01-30T12:29:41.023Z,66.80
2023-01-30T12:32:21.378Z,67.60
2023-01-30T12:34:50.753Z,68.50
2023-01-30T12:37:52.296Z,68.80
2023-01-30T12:41:34.937Z,68.90
2023-01-30T12:44:42.689Z,69.40
2023-01-30T12:47:52.573Z,70.30
2023-01-30T12:50:55.644Z,70.50
2023-01-30T12:54:20.354Z,70.20
2023-01-30T12:58:38.388Z,70.30
2023-01-30T13:01:48.040Z,70.60
2023-01-30T13:05:16.078Z,70.30
2023-01-30T13:08:03.487Z,70.80
2023-01-30T13:11:33.814Z,70.00
2023-01-30T13:14:55.758Z,70.30
2023-01-30T13:17:53.067Z,70.80
2023-01-30T13:21:01.024Z,71.00
2023-01-30T13:23:54.848Z,71.30
2023-01-30T13:26:35.624Z,71.30
2023-01-30T13:29:32.811Z,71.50
2023-01-30T13:32:09.766Z,71.50
2023-01-30T13:34:44.715Z,71.50
2023-01-30T13:37:20.632Z,71.70
2023-01-30T13:40:12.757Z,72.20
2023-01-30T13:43:02.199Z,71.70
2023-01-30T13:45:35.919Z,71.90
2023-01-30T13:48:58.991Z,72.00
2023-01-30T13:52:06.833Z,71.70
2023-01-30T13:55:23.277Z,72.10
2023-01-30T13:58:44.131Z,71.90
2023-01-30T14:01:14.191Z,72.40
2023-01-30T14:03:44.198Z,72.50
2023-01-30T14:06:26.604Z,72.60
2023-01-30T14:08:59.404Z,72.60
2023-01-30T14:11:57.471Z,72.80
2023-01-30T14:14:40.666Z,73.00
2023-01-30T14:17:17.290Z,73.10
2023-01-30T14:20:20.751Z,72.50
2023-01-30T14:22:59.280Z,72.70
2023-01-30T14:25:35.369Z,72.50
2023-01-30T14:28:05.284Z,72.10
2023-01-30T14:30:44.695Z,72.80
2023-01-30T14:33:24.120Z,73.00
2023-01-30T14:36:02.903Z,72.90
2023-01-30T14:38:36.068Z,73.00
2023-01-30T14:41:17.444Z,72.40
2023-01-30T14:43:44.837Z,72.40
2023-01-30T14:46:18.144Z,72.20
2023-01-30T14:49:05.678Z,71.80
2023-01-30T14:51:45.845Z,72.10
2023-01-30T14:54:13.326Z,72.10
2023-01-30T14:57:10.728Z,72.40
2023-01-30T15:00:19.989Z,72.20
2023-01-30T15:02:59.940Z,72.40
2023-01-30T15:05:44.228Z,72.60
2023-01-30T15:08:25.368Z,72.60
2023-01-30T15:11:31.815Z,72.70
2023-01-30T15:14:27.367Z,72.50
2023-01-30T15:18:07.268Z,72.60
2023-01-30T15:21:00.778Z,72.70
2023-01-30T15:24:04.922Z,72.50
2023-01-30T15:27:49.341Z,72.60
2023-01-30T15:30:59.993Z,74.60
2023-01-30T15:33:32.533Z,76.60
2023-01-30T15:36:17.671Z,77.00
2023-01-30T15:38:45.014Z,77.90
2023-01-30T15:41:12.692Z,77.70
2023-01-30T15:44:46.021Z,78.40
2023-01-30T15:47:52.766Z,78.60
2023-01-30T15:50:21.077Z,79.20
2023-01-30T15:52:53.111Z,79.00
2023-01-30T15:55:37.062Z,78.80
2023-01-30T15:58:20.495Z,78.80
2023-01-30T16:00:57.552Z,78.80
2023-01-30T16:03:36.630Z,78.90
2023-01-30T16:06:04.235Z,78.80
2023-01-30T16:08:36.888Z,79.20
2023-01-30T16:11:04.682Z,80.20
2023-01-30T16:13:33.309Z,80.40
2023-01-30T16:16:18.369Z,79.80
2023-01-30T16:18:55.715Z,79.80
2023-01-30T16:21:37.507Z,80.00
2023-01-30T16:24:15.971Z,80.30
2023-01-30T16:26:50.356Z,80.30
2023-01-30T16:29:27.824Z,80.30
2023-01-30T16:31:55.885Z,80.50
2023-01-30T16:34:41.576Z,80.70
2023-01-30T16:37:21.075Z,80.70
2023-01-30T16:40:24.149Z,80.90
